createdAt,value
2022-09-16T00:01:58.015Z,16.50
2022-09-16T00:04:50.165Z,16.50
2022-09-16T00:07:42.301Z,16.40
2022-09-16T00:10:35.626Z,16.40
2022-09-16T00:13:28.060Z,16.40
2022-09-16T00:16:22.996Z,16.20
2022-09-16T00:19:15.377Z,16.20
2022-09-16T00:22:07.495Z,16.20
2022-09-16T00:24:59.619Z,16.20
2022-09-16T00:27:51.771Z,16.20
2022-09-16T00:30:43.877Z,16.20
2022-09-16T00:33:36.002Z,16.10
2022-09-16T00:36:28.351Z,16.10
2022-09-16T00:39:20.527Z,16.00
2022-09-16T00:42:12.711Z,15.90
2022-09-16T00:45:20.949Z,16.00
2022-09-16T00:48:19.265Z,15.90
2022-09-16T00:51:15.053Z,16.00
2022-09-16T00:54:10.052Z,16.00
2022-09-16T00:57:03.159Z,15.90
2022-09-16T00:59:56.296Z,15.90
2022-09-16T01:02:50.379Z,15.90
2022-09-16T01:05:44.298Z,16.00
2022-09-16T01:08:36.812Z,16.00
2022-09-16T01:11:29.446Z,16.00
2022-09-16T01:14:42.447Z,15.90
2022-09-16T01:17:55.987Z,15.90
2022-09-16T01:21:06.241Z,15.90
2022-09-16T01:24:04.229Z,15.80
2022-09-16T01:27:21.174Z,15.80
2022-09-16T01:30:31.921Z,15.70
2022-09-16T01:33:36.447Z,15.70
2022-09-16T01:36:42.166Z,15.80
2022-09-16T01:39:53.353Z,15.70
2022-09-16T01:43:08.767Z,15.60
2022-09-16T01:46:24.095Z,15.60
2022-09-16T01:50:08.617Z,15.60
2022-09-16T01:53:12.956Z,15.50
2022-09-16T01:56:16.809Z,15.60
2022-09-16T01:59:10.019Z,15.50
2022-09-16T02:02:08.817Z,15.40
2022-09-16T02:05:05.086Z,15.40
2022-09-16T02:08:06.831Z,15.40
2022-09-16T02:11:03.695Z,15.40
2022-09-16T02:14:13.810Z,15.30
2022-09-16T02:17:09.878Z,15.20
2022-09-16T02:20:02.156Z,15.10
2022-09-16T02:23:05.016Z,15.10
2022-09-16T02:25:59.624Z,15.10
2022-09-16T02:28:54.684Z,15.10
2022-09-16T02:31:52.331Z,15.10
2022-09-16T02:34:50.760Z,15.10
2022-09-16T02:38:01.266Z,15.10
2022-09-16T02:40:57.211Z,15.00
2022-09-16T02:43:49.512Z,15.00
2022-09-16T02:46:51.679Z,15.10
2022-09-16T02:50:10.400Z,15.00
2022-09-16T02:53:42.815Z,15.00
2022-09-16T02:56:39.390Z,14.90
2022-09-16T02:59:32.412Z,14.90
2022-09-16T03:02:25.531Z,14.80
2022-09-16T03:05:17.772Z,14.90
2022-09-16T03:08:09.894Z,14.90
2022-09-16T03:11:30.552Z,14.80
2022-09-16T03:14:56.897Z,14.80
2022-09-16T03:18:22.642Z,14.80
2022-09-16T03:21:29.755Z,14.80
2022-09-16T03:24:40.564Z,14.80
2022-09-16T03:27:36.808Z,14.80
2022-09-16T03:30:32.724Z,14.80
2022-09-16T03:33:31.714Z,14.80
2022-09-16T03:36:33.525Z,14.80
2022-09-16T03:39:26.011Z,14.80
2022-09-16T03:42:18.285Z,14.70
2022-09-16T03:45:16.003Z,14.80
2022-09-16T03:48:09.183Z,14.70
2022-09-16T03:51:01.318Z,14.70
2022-09-16T03:53:54.274Z,14.70
2022-09-16T03:56:46.506Z,14.70
2022-09-16T03:59:38.636Z,14.80
2022-09-16T04:02:30.883Z,14.80
2022-09-16T04:05:23.060Z,14.80
2022-09-16T04:08:15.180Z,14.80
2022-09-16T04:11:08.016Z,14.80
2022-09-16T04:14:00.132Z,14.80
2022-09-16T04:16:52.250Z,14.80
2022-09-16T04:19:44.533Z,14.80
2022-09-16T04:22:36.727Z,14.80
2022-09-16T04:25:28.954Z,14.70
2022-09-16T04:28:21.117Z,14.70
2022-09-16T04:31:15.396Z,14.70
2022-09-16T04:34:07.593Z,14.70
2022-09-16T04:36:59.707Z,14.80
2022-09-16T04:39:51.892Z,14.80
2022-09-16T04:42:50.970Z,14.80
2022-09-16T04:45:43.364Z,14.80
2022-09-16T04:48:36.195Z,14.80
2022-09-16T04:51:29.685Z,14.80
2022-09-16T04:54:21.853Z,14.90
2022-09-16T04:57:14.117Z,15.00
2022-09-16T05:00:06.960Z,15.00
2022-09-16T05:02:59.144Z,15.00
2022-09-16T05:05:51.300Z,15.10
2022-09-16T05:08:43.682Z,15.00
2022-09-16T05:11:37.868Z,15.10
2022-09-16T05:14:30.111Z,15.00
2022-09-16T05:17:46.436Z,15.00
2022-09-16T05:20:36.491Z,15.20
2022-09-16T05:23:29.086Z,15.30
2022-09-16T05:26:24.430Z,15.30
2022-09-16T05:29:17.511Z,15.30
2022-09-16T05:32:09.652Z,15.50
2022-09-16T05:35:01.770Z,16.00
2022-09-16T05:37:53.915Z,16.40
2022-09-16T05:40:46.410Z,16.70
2022-09-16T05:43:38.865Z,16.90
2022-09-16T05:46:31.043Z,16.90
2022-09-16T05:49:23.910Z,16.80
2022-09-16T05:52:16.160Z,17.00
2022-09-16T05:55:08.996Z,17.70
2022-09-16T05:58:01.141Z,17.80
2022-09-16T06:01:02.263Z,17.50
2022-09-16T06:03:55.399Z,17.20
2022-09-16T06:06:47.775Z,17.00
2022-09-16T06:09:40.109Z,16.90
2022-09-16T06:12:32.274Z,16.70
2022-09-16T06:15:24.446Z,16.60
2022-09-16T06:18:16.854Z,16.60
2022-09-16T06:21:11.669Z,16.70
2022-09-16T06:24:08.593Z,16.70
2022-09-16T06:27:00.725Z,16.80
2022-09-16T06:29:52.839Z,16.90
2022-09-16T06:32:45.038Z,16.80
2022-09-16T06:35:37.228Z,16.70
2022-09-16T06:38:29.499Z,16.70
2022-09-16T06:41:22.603Z,16.70
2022-09-16T06:44:14.758Z,16.70
2022-09-16T06:47:06.898Z,17.00
2022-09-16T06:50:00.502Z,17.30
2022-09-16T06:52:52.682Z,17.40
2022-09-16T06:55:44.830Z,17.40
2022-09-16T06:58:37.589Z,17.40
2022-09-16T07:01:31.168Z,17.40
2022-09-16T07:04:23.360Z,17.40
2022-09-16T07:07:15.821Z,17.30
2022-09-16T07:10:08.393Z,17.30
2022-09-16T07:13:00.538Z,17.40
2022-09-16T07:16:17.483Z,17.40
2022-09-16T07:19:05.563Z,17.40
2022-09-16T07:21:57.924Z,17.40
2022-09-16T07:24:50.047Z,17.40
2022-09-16T07:27:42.741Z,17.50
2022-09-16T07:30:34.937Z,17.50
2022-09-16T07:33:27.618Z,17.70
2022-09-16T07:36:25.192Z,18.10
2022-09-16T07:39:19.095Z,18.50
2022-09-16T07:42:11.289Z,19.10
2022-09-16T07:45:04.180Z,19.40
2022-09-16T07:47:56.300Z,19.40
2022-09-16T07:50:59.169Z,19.00
2022-09-16T07:53:56.848Z,18.70
2022-09-16T07:56:49.100Z,18.40
2022-09-16T07:59:41.248Z,18.00
2022-09-16T08:02:33.420Z,17.90
2022-09-16T08:05:25.656Z,17.80
2022-09-16T08:08:18.274Z,17.80
2022-09-16T08:11:14.357Z,17.90
2022-09-16T08:14:06.900Z,18.00
2022-09-16T08:16:59.134Z,18.00
2022-09-16T08:19:51.344Z,18.10
2022-09-16T08:22:43.620Z,18.10
2022-09-16T08:25:36.420Z,18.00
2022-09-16T08:28:39.882Z,17.90
2022-09-16T08:31:41.980Z,17.80
2022-09-16T08:34:34.158Z,17.60
2022-09-16T08:37:26.262Z,17.50
2022-09-16T08:40:23.099Z,17.50
2022-09-16T08:43:28.735Z,17.40
2022-09-16T08:46:32.382Z,17.40
2022-09-16T08:49:36.408Z,17.40
2022-09-16T08:52:35.391Z,17.40
2022-09-16T08:55:39.519Z,17.30
2022-09-16T08:58:54.779Z,17.40
2022-09-16T09:02:06.591Z,17.60
2022-09-16T09:05:03.397Z,17.70
2022-09-16T09:08:07.618Z,17.70
2022-09-16T09:11:23.014Z,17.70
2022-09-16T09:14:38.378Z,17.70
2022-09-16T09:17:55.314Z,17.80
2022-09-16T09:20:56.125Z,17.90
2022-09-16T09:23:51.220Z,18.00
2022-09-16T09:27:03.662Z,18.00
2022-09-16T09:30:20.041Z,18.00
2022-09-16T09:33:45.954Z,18.00
2022-09-16T09:36:45.064Z,18.00
2022-09-16T09:39:47.883Z,18.00
2022-09-16T09:42:54.470Z,18.10
2022-09-16T09:46:15.248Z,18.10
2022-09-16T09:49:29.251Z,18.10
2022-09-16T09:53:10.905Z,18.10
2022-09-16T09:56:21.514Z,18.30
2022-09-16T09:59:22.782Z,18.50
2022-09-16T10:02:21.189Z,18.60
2022-09-16T10:05:16.078Z,18.70
2022-09-16T10:08:17.736Z,18.70
2022-09-16T10:11:22.512Z,18.80
2022-09-16T10:14:29.465Z,18.80
2022-09-16T10:17:21.671Z,18.60
2022-09-16T10:20:42.749Z,18.60
2022-09-16T10:23:35.915Z,18.60
2022-09-16T10:26:29.119Z,18.80
2022-09-16T10:29:21.303Z,18.80
2022-09-16T10:32:18.808Z,18.80
2022-09-16T10:35:21.544Z,18.70
2022-09-16T10:38:20.068Z,18.40
2022-09-16T10:41:19.743Z,18.50
2022-09-16T10:44:27.463Z,18.50
2022-09-16T10:47:27.757Z,18.50
2022-09-16T10:50:20.480Z,18.60
2022-09-16T10:53:29.426Z,18.60
2022-09-16T10:56:29.454Z,18.70
2022-09-16T10:59:21.640Z,18.70
2022-09-16T11:02:23.892Z,18.80
2022-09-16T11:05:46.164Z,19.10
2022-09-16T11:08:43.499Z,19.30
2022-09-16T11:12:00.575Z,19.40
2022-09-16T11:15:14.447Z,19.40
2022-09-16T11:18:12.729Z,19.40
2022-09-16T11:21:42.493Z,19.50
2022-09-16T11:24:43.517Z,19.60
2022-09-16T11:27:47.660Z,19.70
2022-09-16T11:31:26.840Z,19.80
2022-09-16T11:34:27.630Z,19.90
2022-09-16T11:37:24.036Z,19.90
2022-09-16T11:40:42.844Z,19.90
2022-09-16T11:43:56.092Z,19.80
2022-09-16T11:47:24.423Z,19.90
2022-09-16T11:50:31.611Z,20.00
2022-09-16T11:53:54.490Z,20.00
2022-09-16T11:56:57.670Z,20.00
2022-09-16T11:59:59.077Z,20.10
2022-09-16T12:03:12.443Z,20.10
2022-09-16T12:06:11.328Z,20.20
2022-09-16T12:09:17.449Z,20.30
2022-09-16T12:12:14.556Z,20.30
2022-09-16T12:15:26.567Z,20.30
2022-09-16T12:18:23.976Z,20.20
2022-09-16T12:21:22.589Z,20.30
2022-09-16T12:24:37.694Z,20.20
2022-09-16T12:27:37.560Z,20.10
2022-09-16T12:30:53.928Z,20.10
2022-09-16T12:34:09.740Z,20.20
2022-09-16T12:37:32.862Z,20.20
2022-09-16T12:40:58.354Z,19.90
2022-09-16T12:44:34.052Z,19.90
2022-09-16T12:48:01.507Z,19.80
2022-09-16T12:51:03.458Z,20.00
2022-09-16T12:54:30.388Z,20.00
2022-09-16T12:57:44.664Z,20.10
2022-09-16T13:00:45.129Z,20.10
2022-09-16T13:03:44.807Z,20.10
2022-09-16T13:06:45.175Z,20.10
2022-09-16T13:09:39.870Z,20.30
2022-09-16T13:12:41.328Z,20.30
2022-09-16T13:15:39.529Z,20.40
2022-09-16T13:18:44.756Z,20.30
2022-09-16T13:21:44.679Z,20.40
2022-09-16T13:24:40.366Z,20.30
2022-09-16T13:27:36.092Z,20.30
2022-09-16T13:30:38.450Z,20.20
2022-09-16T13:33:30.631Z,20.20
2022-09-16T13:36:22.730Z,20.20
2022-09-16T13:39:27.858Z,20.20
2022-09-16T13:42:21.470Z,20.20
2022-09-16T13:45:41.414Z,20.10
2022-09-16T13:48:43.323Z,20.10
2022-09-16T13:51:40.916Z,20.20
2022-09-16T13:55:06.318Z,20.10
2022-09-16T13:58:00.908Z,20.00
2022-09-16T14:01:28.082Z,19.90
2022-09-16T14:04:46.931Z,19.80
2022-09-16T14:08:12.090Z,19.70
2022-09-16T14:11:43.604Z,19.60
2022-09-16T14:14:47.065Z,19.40
2022-09-16T14:17:51.218Z,19.40
2022-09-16T14:21:00.403Z,19.40
2022-09-16T14:26:55.256Z,19.30
2022-09-16T14:30:01.486Z,19.30
2022-09-16T14:32:53.847Z,19.30
2022-09-16T14:35:48.346Z,19.20
2022-09-16T14:38:53.938Z,19.20
2022-09-16T14:41:48.794Z,19.10
2022-09-16T14:44:50.426Z,19.10
2022-09-16T14:47:52.271Z,19.00
2022-09-16T14:50:48.059Z,19.00
2022-09-16T14:53:41.674Z,18.90
2022-09-16T14:56:40.884Z,18.80
2022-09-16T14:59:37.212Z,18.90
2022-09-16T15:02:44.860Z,18.80
2022-09-16T15:05:40.989Z,18.80
2022-09-16T15:08:57.278Z,18.70
2022-09-16T15:11:54.348Z,18.60
2022-09-16T15:14:46.916Z,18.60
2022-09-16T15:17:39.075Z,18.60
2022-09-16T15:20:37.807Z,18.50
2022-09-16T15:23:31.693Z,18.50
2022-09-16T15:26:37.766Z,18.50
2022-09-16T15:29:33.885Z,18.40
2022-09-16T15:32:31.942Z,18.20
2022-09-16T15:35:26.664Z,18.20
2022-09-16T15:38:23.275Z,18.10
2022-09-16T15:41:15.405Z,18.10
2022-09-16T15:44:09.177Z,17.90
2022-09-16T15:47:02.800Z,17.90
2022-09-16T15:50:01.053Z,17.90
2022-09-16T15:53:02.625Z,17.90
2022-09-16T15:56:04.910Z,17.80
2022-09-16T15:59:04.661Z,17.70
2022-09-16T16:02:00.828Z,17.60
2022-09-16T16:04:53.295Z,17.60
2022-09-16T16:07:54.996Z,17.50
2022-09-16T16:11:09.441Z,17.40
2022-09-16T16:14:02.188Z,17.30
2022-09-16T16:17:12.160Z,17.30
2022-09-16T16:20:05.457Z,17.20
2022-09-16T16:22:57.852Z,17.20
2022-09-16T16:25:50.119Z,17.20
2022-09-16T16:28:42.194Z,17.30
2022-09-16T16:31:37.160Z,17.30
2022-09-16T16:34:33.075Z,17.20
2022-09-16T16:37:45.590Z,17.10
2022-09-16T16:40:38.418Z,17.10
2022-09-16T16:43:31.368Z,17.10
2022-09-16T16:46:23.704Z,17.20
2022-09-16T16:49:15.839Z,17.20
2022-09-16T16:52:08.940Z,17.10
2022-09-16T16:55:01.487Z,17.10
2022-09-16T16:57:54.109Z,17.10
2022-09-16T17:00:48.490Z,17.10
2022-09-16T17:03:41.667Z,17.10
2022-09-16T17:06:37.938Z,17.00
2022-09-16T17:09:30.934Z,17.00
2022-09-16T17:12:23.080Z,17.00
2022-09-16T17:15:15.389Z,17.10
2022-09-16T17:18:07.770Z,17.10
2022-09-16T17:21:05.772Z,17.10
2022-09-16T17:23:58.510Z,17.10
2022-09-16T17:26:50.673Z,17.10
2022-09-16T17:29:42.823Z,17.10
2022-09-16T17:32:35.472Z,17.10
2022-09-16T17:35:27.594Z,17.10
2022-09-16T17:38:19.719Z,17.10
2022-09-16T17:41:14.187Z,17.00
2022-09-16T17:44:07.380Z,17.00
2022-09-16T17:46:59.556Z,17.00
2022-09-16T17:49:55.254Z,17.00
2022-09-16T17:52:48.473Z,16.90
2022-09-16T17:55:40.733Z,16.80
2022-09-16T17:58:34.040Z,16.70
2022-09-16T18:01:27.319Z,16.70
2022-09-16T18:04:19.425Z,16.70
2022-09-16T18:07:11.582Z,16.70
2022-09-16T18:10:04.222Z,16.80
2022-09-16T18:12:59.726Z,16.70
2022-09-16T18:15:51.939Z,16.70
2022-09-16T18:18:45.134Z,16.60
2022-09-16T18:21:38.198Z,16.60
2022-09-16T18:24:30.472Z,16.60
2022-09-16T18:27:22.660Z,16.50
2022-09-16T18:30:17.695Z,16.40
2022-09-16T18:33:10.811Z,16.40
2022-09-16T18:36:06.204Z,16.40
2022-09-16T18:38:59.256Z,16.40
2022-09-16T18:41:51.529Z,16.40
2022-09-16T18:44:43.717Z,16.40
2022-09-16T18:47:35.904Z,16.40
2022-09-16T18:50:28.079Z,16.40
2022-09-16T18:53:20.169Z,16.50
2022-09-16T18:56:20.140Z,16.50
2022-09-16T18:59:23.071Z,16.50
2022-09-16T19:02:16.021Z,16.50
2022-09-16T19:05:08.488Z,16.50
2022-09-16T19:08:00.599Z,16.40
2022-09-16T19:10:52.928Z,16.40
2022-09-16T19:13:45.559Z,16.40
2022-09-16T19:16:40.460Z,16.40
2022-09-16T19:19:33.389Z,16.40
2022-09-16T19:22:25.550Z,16.30
2022-09-16T19:25:17.700Z,16.20
2022-09-16T19:28:09.903Z,16.10
2022-09-16T19:31:13.435Z,16.00
2022-09-16T19:34:06.313Z,16.10
2022-09-16T19:36:58.728Z,16.00
2022-09-16T19:39:50.851Z,16.00
2022-09-16T19:42:42.982Z,15.90
2022-09-16T19:45:35.172Z,15.80
2022-09-16T19:48:27.814Z,15.80
2022-09-16T19:51:22.973Z,15.80
2022-09-16T19:54:15.615Z,15.80
2022-09-16T19:57:07.770Z,15.70
2022-09-16T19:59:59.978Z,15.80
2022-09-16T20:02:52.153Z,15.80
2022-09-16T20:05:44.280Z,15.80
2022-09-16T20:08:40.170Z,15.70
2022-09-16T20:11:35.085Z,15.70
2022-09-16T20:14:33.844Z,15.80
2022-09-16T20:17:25.936Z,15.80
2022-09-16T20:20:18.120Z,15.90
2022-09-16T20:23:10.244Z,15.90
2022-09-16T20:26:05.370Z,15.90
2022-09-16T20:28:59.393Z,15.90
2022-09-16T20:31:54.896Z,15.80
2022-09-16T20:34:47.035Z,15.60
2022-09-16T20:37:39.249Z,15.60
2022-09-16T20:40:31.423Z,15.60
2022-09-16T20:43:23.603Z,15.60
2022-09-16T20:46:21.608Z,15.50
2022-09-16T20:49:17.086Z,15.50
2022-09-16T20:52:09.286Z,15.50
2022-09-16T20:55:06.197Z,15.40
2022-09-16T20:57:58.327Z,15.40
2022-09-16T21:00:50.828Z,15.30
2022-09-16T21:03:44.276Z,15.20
2022-09-16T21:06:36.792Z,15.10
2022-09-16T21:09:28.914Z,15.10
2022-09-16T21:12:21.124Z,15.10
2022-09-16T21:15:13.302Z,15.10
2022-09-16T21:18:05.675Z,15.10
2022-09-16T21:21:11.418Z,15.10
2022-09-16T21:24:03.811Z,15.10
2022-09-16T21:26:56.207Z,15.10
2022-09-16T21:29:50.620Z,15.10
2022-09-16T21:32:43.387Z,15.00
2022-09-16T21:35:35.490Z,15.00
2022-09-16T21:38:28.488Z,15.00
2022-09-16T21:41:22.208Z,15.00
2022-09-16T21:44:15.117Z,15.00
2022-09-16T21:47:10.468Z,15.00
2022-09-16T21:50:04.871Z,15.10
2022-09-16T21:52:57.116Z,15.10
2022-09-16T21:55:49.273Z,15.10
2022-09-16T21:58:41.776Z,15.20
2022-09-16T22:01:34.790Z,15.20
2022-09-16T22:04:27.107Z,15.10
2022-09-16T22:07:19.271Z,15.10
2022-09-16T22:10:11.381Z,15.10
2022-09-16T22:13:04.459Z,15.10
2022-09-16T22:15:57.129Z,15.10
2022-09-16T22:18:49.340Z,15.00
2022-09-16T22:21:43.932Z,15.00
2022-09-16T22:24:36.063Z,15.00
2022-09-16T22:27:29.772Z,15.00
2022-09-16T22:30:21.872Z,14.90
2022-09-16T22:33:13.982Z,15.00
2022-09-16T22:36:11.671Z,15.00
2022-09-16T22:39:12.226Z,15.00
2022-09-16T22:42:04.635Z,14.90
2022-09-16T22:44:56.779Z,14.80
2022-09-16T22:47:48.944Z,14.70
2022-09-16T22:50:41.079Z,14.60
2022-09-16T22:53:33.936Z,14.60
2022-09-16T22:56:32.245Z,14.60
2022-09-16T22:59:24.516Z,14.50
2022-09-16T23:02:16.982Z,14.50
2022-09-16T23:05:09.950Z,14.50
2022-09-16T23:08:02.366Z,14.50
2022-09-16T23:10:54.901Z,14.40
2022-09-16T23:13:50.333Z,14.40
2022-09-16T23:16:42.554Z,14.30
2022-09-16T23:19:34.836Z,14.20
2022-09-16T23:22:26.980Z,14.10
2022-09-16T23:25:19.107Z,14.00
2022-09-16T23:28:11.246Z,14.00
2022-09-16T23:31:09.264Z,13.90
2022-09-16T23:34:07.439Z,13.80
2022-09-16T23:36:59.605Z,13.80
2022-09-16T23:39:51.782Z,13.80
2022-09-16T23:42:43.974Z,13.70
2022-09-16T23:45:36.703Z,13.80
2022-09-16T23:48:31.669Z,13.80
2022-09-16T23:51:28.295Z,13.80
2022-09-16T23:54:20.889Z,13.80
2022-09-16T23:57:13.015Z,13.80
